sensor_id;sensor_type;location;lat;lon;timestamp;temperature;humidity
15262;DHT22;7733;51.554;13.590;2023-07-20T00:01:48;17.70;99.90
15262;DHT22;7733;51.554;13.590;2023-07-20T00:04:14;17.50;99.90
15262;DHT22;7733;51.554;13.590;2023-07-20T00:06:40;17.40;99.90
15262;DHT22;7733;51.554;13.590;2023-07-20T00:09:09;17.50;99.90
15262;DHT22;7733;51.554;13.590;2023-07-20T00:11:38;17.60;99.90
15262;DHT22;7733;51.554;13.590;2023-07-20T00:14:05;17.50;99.90
15262;DHT22;7733;51.554;13.590;2023-07-20T00:16:31;17.70;99.90
15262;DHT22;7733;51.554;13.590;2023-07-20T00:18:57;17.60;99.90
15262;DHT22;7733;51.554;13.590;2023-07-20T00:21:23;17.60;99.90
15262;DHT22;7733;51.554;13.590;2023-07-20T00:23:49;17.60;99.90
15262;DHT22;7733;51.554;13.590;2023-07-20T00:26:15;17.60;99.90
15262;DHT22;7733;51.554;13.590;2023-07-20T00:28:41;17.70;99.90
15262;DHT22;7733;51.554;13.590;2023-07-20T00:31:06;17.70;99.90
15262;DHT22;7733;51.554;13.590;2023-07-20T00:33:32;17.60;99.90
15262;DHT22;7733;51.554;13.590;2023-07-20T00:35:58;17.70;99.90
15262;DHT22;7733;51.554;13.590;2023-07-20T00:38:23;17.70;99.90
15262;DHT22;7733;51.554;13.590;2023-07-20T00:40:49;17.70;99.90
15262;DHT22;7733;51.554;13.590;2023-07-20T00:43:15;17.40;99.90
15262;DHT22;7733;51.554;13.590;2023-07-20T00:45:41;17.40;99.90
15262;DHT22;7733;51.554;13.590;2023-07-20T00:48:08;17.20;99.90
15262;DHT22;7733;51.554;13.590;2023-07-20T00:50:34;17.40;99.90
15262;DHT22;7733;51.554;13.590;2023-07-20T00:53:02;17.30;99.90
15262;DHT22;7733;51.554;13.590;2023-07-20T00:55:30;17.40;99.90
15262;DHT22;7733;51.554;13.590;2023-07-20T00:57:57;17.50;99.90
15262;DHT22;7733;51.554;13.590;2023-07-20T01:00:23;17.60;99.90
15262;DHT22;7733;51.554;13.590;2023-07-20T01:02:49;17.50;99.90
15262;DHT22;7733;51.554;13.590;2023-07-20T01:05:16;17.40;99.90
15262;DHT22;7733;51.554;13.590;2023-07-20T01:10:46;17.30;99.90
15262;DHT22;7733;51.554;13.590;2023-07-20T01:13:20;17.20;99.90
15262;DHT22;7733;51.554;13.590;2023-07-20T01:15:50;17.10;99.90
15262;DHT22;7733;51.554;13.590;2023-07-20T01:18:21;17.10;99.90
15262;DHT22;7733;51.554;13.590;2023-07-20T01:20:47;17.10;99.90
15262;DHT22;7733;51.554;13.590;2023-07-20T01:33:19;16.50;99.90
15262;DHT22;7733;51.554;13.590;2023-07-20T01:35:50;16.50;99.90
15262;DHT22;7733;51.554;13.590;2023-07-20T01:38:20;16.50;99.90
15262;DHT22;7733;51.554;13.590;2023-07-20T01:40:46;16.50;99.90
15262;DHT22;7733;51.554;13.590;2023-07-20T01:43:12;16.50;99.90
15262;DHT22;7733;51.554;13.590;2023-07-20T01:45:38;16.50;99.90
15262;DHT22;7733;51.554;13.590;2023-07-20T01:48:05;16.40;99.90
15262;DHT22;7733;51.554;13.590;2023-07-20T01:50:30;16.40;99.90
15262;DHT22;7733;51.554;13.590;2023-07-20T01:52:56;16.60;99.90
15262;DHT22;7733;51.554;13.590;2023-07-20T01:55:22;16.50;99.90
15262;DHT22;7733;51.554;13.590;2023-07-20T01:57:48;16.60;99.90
15262;DHT22;7733;51.554;13.590;2023-07-20T02:00:13;16.60;99.90
15262;DHT22;7733;51.554;13.590;2023-07-20T02:02:41;16.60;99.90
15262;DHT22;7733;51.554;13.590;2023-07-20T02:05:07;16.50;99.90
15262;DHT22;7733;51.554;13.590;2023-07-20T02:07:33;16.50;99.90
15262;DHT22;7733;51.554;13.590;2023-07-20T02:09:58;16.40;99.90
15262;DHT22;7733;51.554;13.590;2023-07-20T02:12:24;16.40;99.90
15262;DHT22;7733;51.554;13.590;2023-07-20T02:14:50;16.50;99.90
15262;DHT22;7733;51.554;13.590;2023-07-20T02:17:16;16.40;99.90
15262;DHT22;7733;51.554;13.590;2023-07-20T02:19:42;16.40;99.90
15262;DHT22;7733;51.554;13.590;2023-07-20T02:22:08;16.40;99.90
15262;DHT22;7733;51.554;13.590;2023-07-20T02:24:34;16.40;99.90
15262;DHT22;7733;51.554;13.590;2023-07-20T02:27:00;16.60;99.90
15262;DHT22;7733;51.554;13.590;2023-07-20T02:29:25;16.50;99.90
15262;DHT22;7733;51.554;13.590;2023-07-20T02:31:51;16.40;99.90
15262;DHT22;7733;51.554;13.590;2023-07-20T02:34:17;16.50;99.90
15262;DHT22;7733;51.554;13.590;2023-07-20T02:36:42;16.60;99.90
15262;DHT22;7733;51.554;13.590;2023-07-20T02:39:09;16.50;99.90
15262;DHT22;7733;51.554;13.590;2023-07-20T02:41:35;16.50;99.90
15262;DHT22;7733;51.554;13.590;2023-07-20T02:44:01;16.50;99.90
15262;DHT22;7733;51.554;13.590;2023-07-20T02:46:27;16.50;99.90
15262;DHT22;7733;51.554;13.590;2023-07-20T02:48:55;16.50;99.90
15262;DHT22;7733;51.554;13.590;2023-07-20T02:51:21;16.50;99.90
15262;DHT22;7733;51.554;13.590;2023-07-20T02:53:47;16.50;99.90
15262;DHT22;7733;51.554;13.590;2023-07-20T02:56:12;16.50;99.90
15262;DHT22;7733;51.554;13.590;2023-07-20T02:58:41;16.40;99.90
15262;DHT22;7733;51.554;13.590;2023-07-20T03:01:11;16.20;99.90
15262;DHT22;7733;51.554;13.590;2023-07-20T03:03:37;16.10;99.90
15262;DHT22;7733;51.554;13.590;2023-07-20T03:06:07;16.20;99.90
15262;DHT22;7733;51.554;13.590;2023-07-20T03:08:34;16.40;99.90
15262;DHT22;7733;51.554;13.590;2023-07-20T03:11:01;16.20;99.90
15262;DHT22;7733;51.554;13.590;2023-07-20T03:13:27;16.20;99.90
15262;DHT22;7733;51.554;13.590;2023-07-20T03:15:53;16.10;99.90
15262;DHT22;7733;51.554;13.590;2023-07-20T03:18:19;16.20;99.90
15262;DHT22;7733;51.554;13.590;2023-07-20T03:20:44;16.30;99.90
15262;DHT22;7733;51.554;13.590;2023-07-20T03:23:11;16.30;99.90
15262;DHT22;7733;51.554;13.590;2023-07-20T03:25:36;16.50;99.90
15262;DHT22;7733;51.554;13.590;2023-07-20T03:28:03;16.30;99.90
15262;DHT22;7733;51.554;13.590;2023-07-20T03:30:29;16.40;99.90
15262;DHT22;7733;51.554;13.590;2023-07-20T03:32:54;16.30;99.90
15262;DHT22;7733;51.554;13.590;2023-07-20T03:35:20;16.40;99.90
15262;DHT22;7733;51.554;13.590;2023-07-20T03:37:46;16.30;99.90
15262;DHT22;7733;51.554;13.590;2023-07-20T03:40:11;16.40;99.90
15262;DHT22;7733;51.554;13.590;2023-07-20T03:42:37;16.40;99.90
15262;DHT22;7733;51.554;13.590;2023-07-20T03:45:05;16.50;99.90
15262;DHT22;7733;51.554;13.590;2023-07-20T03:47:31;16.40;99.90
15262;DHT22;7733;51.554;13.590;2023-07-20T03:49:57;16.50;99.90
15262;DHT22;7733;51.554;13.590;2023-07-20T03:52:23;16.50;99.90
15262;DHT22;7733;51.554;13.590;2023-07-20T03:54:50;16.50;99.90
15262;DHT22;7733;51.554;13.590;2023-07-20T03:57:18;16.50;99.90
15262;DHT22;7733;51.554;13.590;2023-07-20T03:59:48;16.40;99.90
15262;DHT22;7733;51.554;13.590;2023-07-20T04:02:14;16.40;99.90
15262;DHT22;7733;51.554;13.590;2023-07-20T04:04:40;16.40;99.90
15262;DHT22;7733;51.554;13.590;2023-07-20T04:07:06;16.50;99.90
15262;DHT22;7733;51.554;13.590;2023-07-20T04:09:32;16.50;99.90
15262;DHT22;7733;51.554;13.590;2023-07-20T04:11:58;16.40;99.90
15262;DHT22;7733;51.554;13.590;2023-07-20T04:14:25;16.40;99.90
15262;DHT22;7733;51.554;13.590;2023-07-20T04:16:50;16.40;99.90
15262;DHT22;7733;51.554;13.590;2023-07-20T04:19:17;16.50;99.90
15262;DHT22;7733;51.554;13.590;2023-07-20T04:21:43;16.60;99.90
15262;DHT22;7733;51.554;13.590;2023-07-20T04:24:09;16.70;99.90
15262;DHT22;7733;51.554;13.590;2023-07-20T04:26:35;16.60;99.90
15262;DHT22;7733;51.554;13.590;2023-07-20T04:29:02;16.50;99.90
15262;DHT22;7733;51.554;13.590;2023-07-20T04:31:27;16.50;99.90
15262;DHT22;7733;51.554;13.590;2023-07-20T04:33:53;16.50;99.90
15262;DHT22;7733;51.554;13.590;2023-07-20T04:36:19;16.50;99.90
15262;DHT22;7733;51.554;13.590;2023-07-20T04:38:45;16.60;99.90
15262;DHT22;7733;51.554;13.590;2023-07-20T04:41:11;16.60;99.90
15262;DHT22;7733;51.554;13.590;2023-07-20T04:43:41;16.40;99.90
15262;DHT22;7733;51.554;13.590;2023-07-20T04:46:10;16.40;99.90
15262;DHT22;7733;51.554;13.590;2023-07-20T04:48:36;16.40;99.90
15262;DHT22;7733;51.554;13.590;2023-07-20T04:51:03;16.40;99.90
15262;DHT22;7733;51.554;13.590;2023-07-20T04:53:29;16.50;99.90
15262;DHT22;7733;51.554;13.590;2023-07-20T04:55:56;16.60;99.90
15262;DHT22;7733;51.554;13.590;2023-07-20T04:58:22;16.60;99.90
15262;DHT22;7733;51.554;13.590;2023-07-20T05:00:49;16.50;99.90
15262;DHT22;7733;51.554;13.590;2023-07-20T05:03:15;16.60;99.90
15262;DHT22;7733;51.554;13.590;2023-07-20T05:05:41;16.60;99.90
15262;DHT22;7733;51.554;13.590;2023-07-20T05:08:07;16.70;99.90
15262;DHT22;7733;51.554;13.590;2023-07-20T05:10:33;16.60;99.90
15262;DHT22;7733;51.554;13.590;2023-07-20T05:12:59;16.70;99.90
15262;DHT22;7733;51.554;13.590;2023-07-20T05:15:25;16.80;99.90
15262;DHT22;7733;51.554;13.590;2023-07-20T05:17:51;16.70;99.90
15262;DHT22;7733;51.554;13.590;2023-07-20T05:20:17;16.80;99.90
15262;DHT22;7733;51.554;13.590;2023-07-20T05:22:43;16.80;99.90
15262;DHT22;7733;51.554;13.590;2023-07-20T05:25:10;16.90;99.90
15262;DHT22;7733;51.554;13.590;2023-07-20T05:27:37;16.90;99.90
15262;DHT22;7733;51.554;13.590;2023-07-20T05:30:04;16.80;99.90
15262;DHT22;7733;51.554;13.590;2023-07-20T05:32:31;16.80;99.90
15262;DHT22;7733;51.554;13.590;2023-07-20T05:34:57;16.70;99.90
15262;DHT22;7733;51.554;13.590;2023-07-20T05:37:23;16.70;99.90
15262;DHT22;7733;51.554;13.590;2023-07-20T05:39:49;16.80;99.90
15262;DHT22;7733;51.554;13.590;2023-07-20T05:42:14;16.70;99.90
15262;DHT22;7733;51.554;13.590;2023-07-20T05:44:41;16.70;99.90
15262;DHT22;7733;51.554;13.590;2023-07-20T05:47:07;16.80;99.90
15262;DHT22;7733;51.554;13.590;2023-07-20T05:49:34;16.80;99.90
15262;DHT22;7733;51.554;13.590;2023-07-20T05:52:01;16.80;99.90
15262;DHT22;7733;51.554;13.590;2023-07-20T05:54:27;16.80;99.90
15262;DHT22;7733;51.554;13.590;2023-07-20T05:56:53;16.80;99.90
15262;DHT22;7733;51.554;13.590;2023-07-20T05:59:19;16.80;99.90
15262;DHT22;7733;51.554;13.590;2023-07-20T06:01:45;16.90;99.90
15262;DHT22;7733;51.554;13.590;2023-07-20T06:04:12;17.00;99.90
15262;DHT22;7733;51.554;13.590;2023-07-20T06:06:38;16.90;99.90
15262;DHT22;7733;51.554;13.590;2023-07-20T06:09:04;16.90;99.90
15262;DHT22;7733;51.554;13.590;2023-07-20T06:11:31;16.90;99.90
15262;DHT22;7733;51.554;13.590;2023-07-20T06:13:57;16.90;99.90
15262;DHT22;7733;51.554;13.590;2023-07-20T06:16:23;17.00;99.90
15262;DHT22;7733;51.554;13.590;2023-07-20T06:18:48;17.10;99.90
15262;DHT22;7733;51.554;13.590;2023-07-20T06:21:14;17.00;99.90
15262;DHT22;7733;51.554;13.590;2023-07-20T06:23:41;17.10;99.90
15262;DHT22;7733;51.554;13.590;2023-07-20T06:26:07;17.30;99.90
15262;DHT22;7733;51.554;13.590;2023-07-20T06:28:33;17.20;99.90
15262;DHT22;7733;51.554;13.590;2023-07-20T06:31:03;17.20;99.90
15262;DHT22;7733;51.554;13.590;2023-07-20T06:33:29;17.20;99.90
15262;DHT22;7733;51.554;13.590;2023-07-20T06:35:55;17.20;99.90
15262;DHT22;7733;51.554;13.590;2023-07-20T06:38:22;17.20;99.90
15262;DHT22;7733;51.554;13.590;2023-07-20T06:40:49;17.20;99.90
15262;DHT22;7733;51.554;13.590;2023-07-20T06:43:16;17.20;99.90
15262;DHT22;7733;51.554;13.590;2023-07-20T06:45:42;17.20;99.90
15262;DHT22;7733;51.554;13.590;2023-07-20T06:48:08;17.10;99.90
15262;DHT22;7733;51.554;13.590;2023-07-20T06:50:34;17.20;99.90
15262;DHT22;7733;51.554;13.590;2023-07-20T06:53:00;17.20;99.90
15262;DHT22;7733;51.554;13.590;2023-07-20T06:55:28;17.30;99.90
15262;DHT22;7733;51.554;13.590;2023-07-20T06:57:54;17.30;99.90
15262;DHT22;7733;51.554;13.590;2023-07-20T07:00:20;17.40;99.90
15262;DHT22;7733;51.554;13.590;2023-07-20T07:02:46;17.50;99.90
15262;DHT22;7733;51.554;13.590;2023-07-20T07:05:11;17.50;99.90
15262;DHT22;7733;51.554;13.590;2023-07-20T07:07:39;17.50;99.90
15262;DHT22;7733;51.554;13.590;2023-07-20T07:10:06;17.50;99.90
15262;DHT22;7733;51.554;13.590;2023-07-20T07:12:32;17.30;99.90
15262;DHT22;7733;51.554;13.590;2023-07-20T07:14:58;17.20;99.90
15262;DHT22;7733;51.554;13.590;2023-07-20T07:17:24;17.40;99.90
15262;DHT22;7733;51.554;13.590;2023-07-20T07:19:51;17.40;99.90
15262;DHT22;7733;51.554;13.590;2023-07-20T07:22:20;17.40;99.90
15262;DHT22;7733;51.554;13.590;2023-07-20T07:24:47;17.50;99.90
15262;DHT22;7733;51.554;13.590;2023-07-20T07:27:14;17.50;99.90
15262;DHT22;7733;51.554;13.590;2023-07-20T07:29:42;17.50;99.90
15262;DHT22;7733;51.554;13.590;2023-07-20T07:32:12;17.60;99.90
15262;DHT22;7733;51.554;13.590;2023-07-20T07:34:38;17.70;99.90
15262;DHT22;7733;51.554;13.590;2023-07-20T07:37:05;17.40;99.90
15262;DHT22;7733;51.554;13.590;2023-07-20T07:39:31;17.50;99.90
15262;DHT22;7733;51.554;13.590;2023-07-20T07:41:57;17.40;99.90
15262;DHT22;7733;51.554;13.590;2023-07-20T07:44:23;17.40;99.90
15262;DHT22;7733;51.554;13.590;2023-07-20T07:46:49;17.30;99.90
15262;DHT22;7733;51.554;13.590;2023-07-20T07:49:16;17.50;99.90
15262;DHT22;7733;51.554;13.590;2023-07-20T07:51:44;17.40;99.90
15262;DHT22;7733;51.554;13.590;2023-07-20T07:54:09;17.60;99.90
15262;DHT22;7733;51.554;13.590;2023-07-20T07:56:35;17.80;99.90
15262;DHT22;7733;51.554;13.590;2023-07-20T07:59:01;17.80;99.90
15262;DHT22;7733;51.554;13.590;2023-07-20T08:01:28;17.80;99.90
15262;DHT22;7733;51.554;13.590;2023-07-20T08:03:54;17.90;99.90
15262;DHT22;7733;51.554;13.590;2023-07-20T08:06:20;18.00;99.90
15262;DHT22;7733;51.554;13.590;2023-07-20T08:08:45;18.20;99.90
15262;DHT22;7733;51.554;13.590;2023-07-20T08:11:11;18.10;99.90
15262;DHT22;7733;51.554;13.590;2023-07-20T08:13:37;17.90;99.90
15262;DHT22;7733;51.554;13.590;2023-07-20T08:16:03;18.20;99.90
15262;DHT22;7733;51.554;13.590;2023-07-20T08:18:29;18.50;99.90
15262;DHT22;7733;51.554;13.590;2023-07-20T08:20:54;18.50;99.90
15262;DHT22;7733;51.554;13.590;2023-07-20T08:23:20;18.50;99.90
15262;DHT22;7733;51.554;13.590;2023-07-20T08:25:46;18.70;99.90
15262;DHT22;7733;51.554;13.590;2023-07-20T08:28:16;18.30;99.90
15262;DHT22;7733;51.554;13.590;2023-07-20T08:30:47;18.10;99.90
15262;DHT22;7733;51.554;13.590;2023-07-20T08:33:15;18.00;99.90
15262;DHT22;7733;51.554;13.590;2023-07-20T08:35:45;17.90;99.90
15262;DHT22;7733;51.554;13.590;2023-07-20T08:38:11;18.20;99.90
15262;DHT22;7733;51.554;13.590;2023-07-20T08:40:44;18.70;99.90
15262;DHT22;7733;51.554;13.590;2023-07-20T08:43:11;18.80;99.90
15262;DHT22;7733;51.554;13.590;2023-07-20T08:45:40;19.20;99.90
15262;DHT22;7733;51.554;13.590;2023-07-20T08:48:07;19.20;99.90
15262;DHT22;7733;51.554;13.590;2023-07-20T08:50:34;19.30;99.90
15262;DHT22;7733;51.554;13.590;2023-07-20T08:53:01;19.00;99.90
15262;DHT22;7733;51.554;13.590;2023-07-20T08:55:28;18.80;99.90
15262;DHT22;7733;51.554;13.590;2023-07-20T08:57:56;18.70;99.90
15262;DHT22;7733;51.554;13.590;2023-07-20T09:00:26;19.10;99.90
15262;DHT22;7733;51.554;13.590;2023-07-20T09:02:55;19.30;99.90
15262;DHT22;7733;51.554;13.590;2023-07-20T09:05:23;19.20;99.90
15262;DHT22;7733;51.554;13.590;2023-07-20T09:07:52;19.30;99.90
15262;DHT22;7733;51.554;13.590;2023-07-20T09:10:21;19.70;99.90
15262;DHT22;7733;51.554;13.590;2023-07-20T09:12:47;20.00;99.90
15262;DHT22;7733;51.554;13.590;2023-07-20T09:15:13;20.20;99.90
15262;DHT22;7733;51.554;13.590;2023-07-20T09:17:39;20.50;99.90
15262;DHT22;7733;51.554;13.590;2023-07-20T09:20:12;20.40;99.90
15262;DHT22;7733;51.554;13.590;2023-07-20T09:22:39;20.20;99.90
15262;DHT22;7733;51.554;13.590;2023-07-20T09:25:16;20.10;99.90
15262;DHT22;7733;51.554;13.590;2023-07-20T09:27:45;20.30;99.90
15262;DHT22;7733;51.554;13.590;2023-07-20T09:30:13;20.30;99.90
15262;DHT22;7733;51.554;13.590;2023-07-20T09:32:42;20.20;99.90
15262;DHT22;7733;51.554;13.590;2023-07-20T09:35:17;20.30;99.90
15262;DHT22;7733;51.554;13.590;2023-07-20T09:37:53;20.30;99.90
15262;DHT22;7733;51.554;13.590;2023-07-20T09:40:26;20.60;99.90
15262;DHT22;7733;51.554;13.590;2023-07-20T09:42:53;20.50;99.90
15262;DHT22;7733;51.554;13.590;2023-07-20T09:45:39;20.50;99.90
15262;DHT22;7733;51.554;13.590;2023-07-20T09:48:08;20.60;99.90
15262;DHT22;7733;51.554;13.590;2023-07-20T09:50:43;20.50;99.90
15262;DHT22;7733;51.554;13.590;2023-07-20T09:53:15;20.40;99.90
15262;DHT22;7733;51.554;13.590;2023-07-20T09:55:44;20.50;99.90
15262;DHT22;7733;51.554;13.590;2023-07-20T09:58:11;20.80;99.90
15262;DHT22;7733;51.554;13.590;2023-07-20T10:00:38;21.00;99.90
15262;DHT22;7733;51.554;13.590;2023-07-20T10:03:06;20.90;99.90
15262;DHT22;7733;51.554;13.590;2023-07-20T10:05:37;21.00;99.90
15262;DHT22;7733;51.554;13.590;2023-07-20T10:08:12;21.00;99.90
15262;DHT22;7733;51.554;13.590;2023-07-20T10:10:41;21.10;99.90
15262;DHT22;7733;51.554;13.590;2023-07-20T10:13:21;21.00;99.90
15262;DHT22;7733;51.554;13.590;2023-07-20T10:16:01;21.00;99.90
15262;DHT22;7733;51.554;13.590;2023-07-20T10:18:31;21.30;99.90
15262;DHT22;7733;51.554;13.590;2023-07-20T10:21:04;21.00;99.90
15262;DHT22;7733;51.554;13.590;2023-07-20T10:23:33;21.00;99.90
15262;DHT22;7733;51.554;13.590;2023-07-20T10:26:00;21.50;99.90
15262;DHT22;7733;51.554;13.590;2023-07-20T10:28:27;21.70;99.90
15262;DHT22;7733;51.554;13.590;2023-07-20T10:30:53;21.60;99.90
15262;DHT22;7733;51.554;13.590;2023-07-20T10:33:20;21.90;99.90
15262;DHT22;7733;51.554;13.590;2023-07-20T10:35:56;22.10;99.10
15262;DHT22;7733;51.554;13.590;2023-07-20T10:41:21;22.20;98.30
15262;DHT22;7733;51.554;13.590;2023-07-20T10:44:05;22.10;99.10
15262;DHT22;7733;51.554;13.590;2023-07-20T10:46:43;22.20;98.70
15262;DHT22;7733;51.554;13.590;2023-07-20T10:49:11;21.80;99.60
15262;DHT22;7733;51.554;13.590;2023-07-20T10:51:46;21.40;99.90
15262;DHT22;7733;51.554;13.590;2023-07-20T10:56:49;21.30;99.90
15262;DHT22;7733;51.554;13.590;2023-07-20T10:59:19;21.40;99.90
15262;DHT22;7733;51.554;13.590;2023-07-20T11:02:06;21.50;99.10
15262;DHT22;7733;51.554;13.590;2023-07-20T11:04:41;21.80;99.40
15262;DHT22;7733;51.554;13.590;2023-07-20T11:07:10;22.40;99.70
15262;DHT22;7733;51.554;13.590;2023-07-20T11:09:41;22.70;98.10
15262;DHT22;7733;51.554;13.590;2023-07-20T11:12:15;22.70;97.40
15262;DHT22;7733;51.554;13.590;2023-07-20T11:15:03;22.70;96.00
15262;DHT22;7733;51.554;13.590;2023-07-20T11:17:30;22.90;95.90
15262;DHT22;7733;51.554;13.590;2023-07-20T11:20:01;23.00;95.30
15262;DHT22;7733;51.554;13.590;2023-07-20T11:22:30;23.00;94.70
15262;DHT22;7733;51.554;13.590;2023-07-20T11:24:57;23.10;94.10
15262;DHT22;7733;51.554;13.590;2023-07-20T11:27:24;22.90;94.50
15262;DHT22;7733;51.554;13.590;2023-07-20T11:29:50;22.90;94.30
15262;DHT22;7733;51.554;13.590;2023-07-20T11:32:23;22.50;94.80
15262;DHT22;7733;51.554;13.590;2023-07-20T11:34:50;22.40;95.00
15262;DHT22;7733;51.554;13.590;2023-07-20T11:37:16;22.40;95.10
15262;DHT22;7733;51.554;13.590;2023-07-20T11:39:43;22.10;94.90
15262;DHT22;7733;51.554;13.590;2023-07-20T11:42:09;21.90;95.60
15262;DHT22;7733;51.554;13.590;2023-07-20T11:44:37;21.70;96.10
15262;DHT22;7733;51.554;13.590;2023-07-20T11:47:04;21.30;97.10
15262;DHT22;7733;51.554;13.590;2023-07-20T11:49:39;21.10;97.20
15262;DHT22;7733;51.554;13.590;2023-07-20T11:52:08;21.10;98.40
15262;DHT22;7733;51.554;13.590;2023-07-20T11:54:39;20.80;99.90
15262;DHT22;7733;51.554;13.590;2023-07-20T11:57:06;20.40;99.90
15262;DHT22;7733;51.554;13.590;2023-07-20T11:59:32;20.00;99.90
15262;DHT22;7733;51.554;13.590;2023-07-20T12:02:02;19.60;99.90
15262;DHT22;7733;51.554;13.590;2023-07-20T12:04:29;19.40;99.90
15262;DHT22;7733;51.554;13.590;2023-07-20T12:06:56;19.40;99.90
15262;DHT22;7733;51.554;13.590;2023-07-20T12:09:22;19.40;99.90
15262;DHT22;7733;51.554;13.590;2023-07-20T12:11:49;19.60;99.90
15262;DHT22;7733;51.554;13.590;2023-07-20T12:14:16;19.90;99.90
15262;DHT22;7733;51.554;13.590;2023-07-20T12:16:42;20.30;99.90
15262;DHT22;7733;51.554;13.590;2023-07-20T12:19:10;20.50;99.90
15262;DHT22;7733;51.554;13.590;2023-07-20T12:21:39;20.60;99.90
15262;DHT22;7733;51.554;13.590;2023-07-20T12:24:07;20.50;99.90
15262;DHT22;7733;51.554;13.590;2023-07-20T12:26:37;20.60;99.90
15262;DHT22;7733;51.554;13.590;2023-07-20T12:29:03;20.80;99.90
15262;DHT22;7733;51.554;13.590;2023-07-20T12:31:30;20.80;99.90
15262;DHT22;7733;51.554;13.590;2023-07-20T12:33:57;20.60;99.90
15262;DHT22;7733;51.554;13.590;2023-07-20T12:36:24;20.80;99.90
15262;DHT22;7733;51.554;13.590;2023-07-20T12:38:50;20.80;99.90
15262;DHT22;7733;51.554;13.590;2023-07-20T12:41:16;21.00;99.90
15262;DHT22;7733;51.554;13.590;2023-07-20T12:43:44;21.00;99.90
15262;DHT22;7733;51.554;13.590;2023-07-20T12:46:12;21.10;99.90
15262;DHT22;7733;51.554;13.590;2023-07-20T12:48:39;21.20;99.90
15262;DHT22;7733;51.554;13.590;2023-07-20T12:51:06;21.40;99.90
15262;DHT22;7733;51.554;13.590;2023-07-20T12:53:33;21.30;99.90
15262;DHT22;7733;51.554;13.590;2023-07-20T12:55:59;21.20;99.90
15262;DHT22;7733;51.554;13.590;2023-07-20T12:58:26;21.30;99.90
15262;DHT22;7733;51.554;13.590;2023-07-20T13:00:52;21.40;99.90
15262;DHT22;7733;51.554;13.590;2023-07-20T13:03:18;21.80;99.90
15262;DHT22;7733;51.554;13.590;2023-07-20T13:05:45;21.60;99.90
15262;DHT22;7733;51.554;13.590;2023-07-20T13:08:12;21.30;99.90
15262;DHT22;7733;51.554;13.590;2023-07-20T13:10:38;21.20;99.90
15262;DHT22;7733;51.554;13.590;2023-07-20T13:13:04;21.30;99.90
15262;DHT22;7733;51.554;13.590;2023-07-20T13:15:32;21.10;99.90
15262;DHT22;7733;51.554;13.590;2023-07-20T13:18:05;20.90;99.90
15262;DHT22;7733;51.554;13.590;2023-07-20T13:20:31;21.00;99.90
15262;DHT22;7733;51.554;13.590;2023-07-20T13:22:57;21.00;99.90
15262;DHT22;7733;51.554;13.590;2023-07-20T13:25:22;20.80;99.90
15262;DHT22;7733;51.554;13.590;2023-07-20T13:27:48;20.70;99.90
15262;DHT22;7733;51.554;13.590;2023-07-20T13:30:14;20.60;99.90
15262;DHT22;7733;51.554;13.590;2023-07-20T13:32:44;20.40;99.90
15262;DHT22;7733;51.554;13.590;2023-07-20T13:35:13;19.90;99.90
15262;DHT22;7733;51.554;13.590;2023-07-20T13:37:39;19.30;99.90
15262;DHT22;7733;51.554;13.590;2023-07-20T13:40:06;19.20;99.90
15262;DHT22;7733;51.554;13.590;2023-07-20T13:42:37;19.10;99.90
15262;DHT22;7733;51.554;13.590;2023-07-20T13:45:03;19.20;99.90
15262;DHT22;7733;51.554;13.590;2023-07-20T13:47:30;19.20;99.90
15262;DHT22;7733;51.554;13.590;2023-07-20T13:49:55;19.40;99.90
15262;DHT22;7733;51.554;13.590;2023-07-20T13:52:21;19.60;99.90
15262;DHT22;7733;51.554;13.590;2023-07-20T13:54:47;20.00;99.90
15262;DHT22;7733;51.554;13.590;2023-07-20T13:57:13;19.90;99.90
15262;DHT22;7733;51.554;13.590;2023-07-20T13:59:40;19.80;99.90
15262;DHT22;7733;51.554;13.590;2023-07-20T14:02:06;19.90;99.90
15262;DHT22;7733;51.554;13.590;2023-07-20T14:07:00;20.10;99.90
15262;DHT22;7733;51.554;13.590;2023-07-20T14:09:26;20.30;99.90
15262;DHT22;7733;51.554;13.590;2023-07-20T14:11:51;20.30;99.90
15262;DHT22;7733;51.554;13.590;2023-07-20T14:14:17;20.40;99.90
15262;DHT22;7733;51.554;13.590;2023-07-20T14:16:43;20.40;99.90
15262;DHT22;7733;51.554;13.590;2023-07-20T14:19:08;20.40;99.90
15262;DHT22;7733;51.554;13.590;2023-07-20T14:21:34;20.50;99.90
15262;DHT22;7733;51.554;13.590;2023-07-20T14:24:00;20.60;99.90
15262;DHT22;7733;51.554;13.590;2023-07-20T14:26:26;20.40;99.90
15262;DHT22;7733;51.554;13.590;2023-07-20T14:28:51;20.30;99.90
15262;DHT22;7733;51.554;13.590;2023-07-20T14:31:17;20.80;99.90
15262;DHT22;7733;51.554;13.590;2023-07-20T14:33:44;21.30;99.90
15262;DHT22;7733;51.554;13.590;2023-07-20T14:36:09;21.50;99.90
15262;DHT22;7733;51.554;13.590;2023-07-20T14:38:35;21.80;99.90
15262;DHT22;7733;51.554;13.590;2023-07-20T14:41:01;21.90;99.90
15262;DHT22;7733;51.554;13.590;2023-07-20T14:43:27;22.10;99.90
15262;DHT22;7733;51.554;13.590;2023-07-20T14:45:53;22.10;99.90
15262;DHT22;7733;51.554;13.590;2023-07-20T14:48:20;22.20;99.90
15262;DHT22;7733;51.554;13.590;2023-07-20T14:50:46;22.20;99.90
15262;DHT22;7733;51.554;13.590;2023-07-20T14:53:15;22.30;99.90
15262;DHT22;7733;51.554;13.590;2023-07-20T14:55:42;22.60;99.90
15262;DHT22;7733;51.554;13.590;2023-07-20T14:58:08;22.70;99.90
15262;DHT22;7733;51.554;13.590;2023-07-20T15:00:34;22.80;99.90
15262;DHT22;7733;51.554;13.590;2023-07-20T15:03:00;23.00;99.90
15262;DHT22;7733;51.554;13.590;2023-07-20T15:05:26;22.70;99.90
15262;DHT22;7733;51.554;13.590;2023-07-20T15:07:52;22.60;99.90
15262;DHT22;7733;51.554;13.590;2023-07-20T15:10:19;22.30;99.90
15262;DHT22;7733;51.554;13.590;2023-07-20T15:12:45;22.40;99.70
15262;DHT22;7733;51.554;13.590;2023-07-20T15:15:12;22.70;98.30
15262;DHT22;7733;51.554;13.590;2023-07-20T15:17:41;22.80;98.80
15262;DHT22;7733;51.554;13.590;2023-07-20T15:20:11;22.80;98.60
15262;DHT22;7733;51.554;13.590;2023-07-20T15:22:38;23.10;98.20
15262;DHT22;7733;51.554;13.590;2023-07-20T15:25:06;23.20;97.60
15262;DHT22;7733;51.554;13.590;2023-07-20T15:27:33;23.00;96.50
15262;DHT22;7733;51.554;13.590;2023-07-20T15:29:59;23.10;96.90
15262;DHT22;7733;51.554;13.590;2023-07-20T15:32:24;22.70;95.90
15262;DHT22;7733;51.554;13.590;2023-07-20T15:34:50;22.30;96.00
15262;DHT22;7733;51.554;13.590;2023-07-20T15:37:16;22.20;96.90
15262;DHT22;7733;51.554;13.590;2023-07-20T15:39:42;22.00;96.70
15262;DHT22;7733;51.554;13.590;2023-07-20T15:42:08;22.20;97.20
15262;DHT22;7733;51.554;13.590;2023-07-20T15:44:34;22.00;97.10
15262;DHT22;7733;51.554;13.590;2023-07-20T15:47:00;21.90;97.00
15262;DHT22;7733;51.554;13.590;2023-07-20T15:49:27;21.90;97.50
15262;DHT22;7733;51.554;13.590;2023-07-20T15:51:53;21.80;97.80